• Join FlightAware (Why Join?)
  • Login
  • US Flag 
08:06PM EDT


 

Airport Tracker/Info


-or-


 

Live Flight TrackerFlight Track Log ✈ AWE2706 ✈ 29-Apr-2013 ✈ KCLT - KMHT

Flight Track Log - Related Links

Times and Time Zones

All times are in EDT time to prevent confusion due to time zone crossing. See the AWE2706 flight status page for this flight to view local times or setup timezone preferences in your user account.

Time Position Orientation Groundspeed Altitude Reporting Facility
EDT Latitude Longitude Course Direction KTS MPH feet Rate Location/Type
02:24PM 35.1908 -80.9356 72° East 168 193 1,500  Level Atlanta Center
02:25PM 35.1658 -80.9342 177° South 172 198 2,500 1,800 Climbing Atlanta Center
02:26PM 35.0994 -80.8706 142° Southeast 283 326 4,800 2,100 Climbing Atlanta Center
02:27PM 35.1069 -80.7561 85° East 310 357 7,300 2,520 Climbing Atlanta Center
02:28PM 35.2659 -80.5196 30° Northeast  Level FlightAware Approximate
02:28PM 35.1547 -80.6703 56° Northeast 307 353 10,000  Level Atlanta Center
02:29PM 35.3450 -80.4227 72° East  Level FlightAware Approximate
02:29PM 35.2003 -80.5847 57° Northeast 342 394 11,800  Level Atlanta Center
02:30PM 35.2556 -80.4806 57° Northeast 354 407 13,700 1,920 Climbing Atlanta Center
02:32PM 35.3719 -80.2636 57° Northeast 394 453 17,600 1,740 Climbing Washington Center
02:33PM 35.4242 -80.1597 58° Northeast 401 461 18,900 1,380 Climbing Washington Center
02:34PM 35.4625 -80.0242 71° East 396 456 20,400 1,440 Climbing Washington Center
02:35PM 35.5014 -79.8783 72° East 413 475 21,900 1,380 Climbing Washington Center
02:36PM 35.5378 -79.7347 73° East 432 497 23,200 1,260 Climbing Washington Center
02:37PM 35.5761 -79.5836 73° East 445 512 24,500 1,380 Climbing Washington Center
02:38PM 35.6233 -79.4172 71° East 462 532 26,100 1,260 Climbing Washington Center
02:39PM 35.6781 -79.2742 65° Northeast 462 532 27,100 840 Climbing Washington Center
02:40PM 35.7411 -79.1208 63° Northeast 470 541 27,800 780 Climbing Washington Center
02:41PM 35.8039 -78.9675 63° Northeast 484 557 28,700 1,020 Climbing Washington Center
02:42PM 35.8667 -78.8114 64° Northeast 495 570 29,900 1,320 Climbing Washington Center
02:43PM 35.9353 -78.6600 61° Northeast 501 577 31,300 1,200 Climbing Washington Center
02:44PM 36.0078 -78.5114 59° Northeast 501 577 32,400 1,020 Climbing Washington Center
02:45PM 36.0803 -78.3650 58° Northeast 501 577 33,400 1,140 Climbing Washington Center
02:46PM 36.1503 -78.2208 59° Northeast 495 570 34,700 780 Climbing Washington Center
02:47PM 36.2181 -78.0739 60° Northeast 489 563 35,000 120 Climbing Washington Center
02:48PM 36.2897 -77.9242 59° Northeast 489 563 35,000  Level Washington Center
02:49PM 36.3636 -77.7742 59° Northeast 499 574 35,000  Level Washington Center
02:50PM 36.4200 -77.6467 61° Northeast 505 581 35,000  Level Washington Center
02:51PM 36.4981 -77.4806 60° Northeast 505 581 35,000  Level Washington Center
02:52PM 36.5692 -77.3247 60° Northeast 505 581 35,000 -300 Level Washington Center
02:53PM 36.6381 -77.1708 61° Northeast 505 581 34,400 -960 Descending Washington Center
02:54PM 36.7214 -77.0172 56° Northeast 510 587 33,100 -720 Descending Washington Center
02:55PM 36.8333 -76.9025 39° Northeast 521 600 33,000 -60 Descending Washington Center
02:56PM 36.9511 -76.7953 36° Northeast 503 579 33,000  Level Washington Center
02:57PM 37.0836 -76.6800 35° Northeast 520 598 33,000  Level Washington Center
02:58PM 37.2014 -76.5722 36° Northeast 525 604 33,000  Level Washington Center
02:59PM 37.3211 -76.4614 36° Northeast 525 604 33,000  Level Washington Center
03:00PM 37.4386 -76.3503 37° Northeast 525 604 33,000  Level Washington Center
03:01PM 37.5603 -76.2414 35° Northeast 525 604 33,000  Level Washington Center
03:02PM 37.6692 -76.1481 34° Northeast 525 604 33,000  Level Washington Center
03:03PM 37.7992 -76.0203 38° Northeast 525 604 33,000  Level Washington Center
03:04PM 37.9203 -75.9103 36° Northeast 531 611 33,000  Level Washington Center
03:05PM 38.0311 -75.8106 35° Northeast 538 619 33,000  Level Washington Center
03:06PM 38.1606 -75.6814 38° Northeast 538 619 33,000  Level Washington Center
03:07PM 38.2692 -75.5839 35° Northeast 533 613 33,000 -60 Level Washington Center
03:08PM 38.3942 -75.4911 30° Northeast 526 605 32,900  Descending Washington Center
03:09PM 38.5253 -75.4350 19° North 502 578 33,000  Climbing Washington Center
03:10PM 38.6544 -75.3844 17° North 492 566 33,000  Level Washington Center
03:11PM 38.7794 -75.3067 26° Northeast 487 560 33,000  Level Washington Center
03:12PM 38.8981 -75.2103 32° Northeast 487 560 33,000  Level Washington Center
03:13PM 39.0167 -75.1161 32° Northeast 493 567 33,000  Level Washington Center
03:14PM 39.1369 -75.0161 33° Northeast 498 573 33,000  Level Washington Center
03:15PM 39.2572 -74.9189 32° Northeast 504 580 33,000  Level Washington Center
03:16PM 39.3797 -74.8183 32° Northeast 509 586 33,000  Level Washington Center
03:17PM 39.5039 -74.7175 32° Northeast 519 597 33,000  Level Washington Center
03:19PM 39.8217 -74.4872 29° Northeast 522 601 33,000  Level New York Center
03:20PM 39.9625 -74.4514 11° North 517 595 33,000  Level New York Center
03:21PM 40.1053 -74.4183 10° North 512 589 33,000  Level New York Center
03:22PM 40.2436 -74.3903 North 512 589 33,000  Level New York Center
03:23PM 40.3822 -74.3567 10° North 505 581 33,000  Level New York Center
03:24PM 40.5186 -74.3228 11° North 505 581 33,000  Level New York Center
03:25PM 40.6592 -74.2919 North 505 581 33,000  Level New York Center
03:28PM 40.9733 -74.2269 North 502 578 33,000  Level Boston Center
03:29PM 41.1114 -74.1950 10° North 502 578 33,000  Level Boston Center
03:30PM 41.2514 -74.1628 10° North 502 578 33,000  Level Boston Center
03:31PM 41.3875 -74.1250 12° North 502 578 33,000 -60 Level Boston Center
03:32PM 41.5233 -74.0925 10° North 502 578 32,900 -720 Descending Boston Center
03:33PM 41.6656 -74.0631 North 508 585 31,600 -960 Descending Boston Center
03:34PM 41.8039 -74.0136 15° North 482 555 31,000 -720 Descending Boston Center
03:35PM 41.8972 -73.8764 48° Northeast 458 527 30,200 -1,200 Descending Boston Center
03:36PM 41.9783 -73.7275 54° Northeast 464 534 28,600 -1,500 Descending Boston Center
03:37PM 42.0589 -73.5950 51° Northeast 469 540 27,200 -1,560 Descending Boston Center
03:38PM 42.1269 -73.4703 54° Northeast 460 529 25,500 -1,740 Descending Boston Center
03:39PM 42.2031 -73.3397 52° Northeast 451 519 23,800 -1,800 Descending Boston Center
03:40PM 42.2664 -73.2283 52° Northeast 411 473 22,000 -1,920 Descending Boston Center
03:41PM 42.3381 -73.0972 53° Northeast 416 479 20,000 -1,500 Descending Boston Center
03:42PM 42.4033 -72.9911 50° Northeast 409 471 19,000 -540 Descending Boston Center
03:43PM 42.4747 -72.8622 53° Northeast 387 445 19,000  Level Boston Center
03:44PM 42.5314 -72.7583 53° Northeast 387 445 19,000  Level Boston Center
03:45PM 42.5961 -72.6431 53° Northeast 387 445 19,000 -240 Level Boston Center
03:46PM 42.6631 -72.5306 51° Northeast 387 445 18,600 -1,260 Descending Boston Center
03:47PM 42.7233 -72.4203 53° Northeast 377 434 16,500 -2,340 Descending Boston Center
03:48PM 42.7839 -72.3128 52° Northeast 367 422 14,000 -2,580 Descending Boston Center
03:49PM 42.8022 -72.1742 80° East 341 392 11,400 -2,040 Descending Boston Center
03:50PM 42.8125 -72.0581 83° East 334 384 10,000 -900 Descending Boston Center
03:51PM 42.8225 -71.9392 83° East 300 345 9,600 -1,020 Descending Boston Center
03:52PM 42.8344 -71.8400 81° East 285 328 8,000 -1,800 Descending Boston Center
03:53PM 42.8922 -71.7572 46° Northeast 268 308 6,100 -1,500 Descending Boston Center
03:54PM 42.9397 -71.6942 44° Northeast 261 300 5,100 -1,080 Descending Boston Center
03:55PM 42.9936 -71.6253 43° Northeast 240 276 4,000 -600 Descending Boston Center
03:56PM 43.0222 -71.5653 57° Northeast 218 251 3,900 -600 Descending Boston Center
03:57PM 43.0281 -71.4944 84° East 189 217 2,900 -1,200 Descending Boston Center
03:58PM 42.9964 -71.4750 156° South 135 155 1,600 -1,140 Descending Boston Center
03:59PM 42.9589 -71.4500 154° Southeast 141 162 700 -660 Descending Boston Center
04:00PM 42.9211 -71.4281 157° South 141 162 300 9,120 Descending Boston Center
04:01PM 42.8856 -71.4086 158° South 141 162 19,000 9,300 Climbing Boston Center
04:02PM 42.8478 -71.3867 157° South 141 162 19,000  Level Boston Center
04:03PM 42.8122 -71.3675 158° South 141 162 19,000  Level Boston Center
04:04PM 42.7892 -71.3536 156° South 141 162 19,000  Level Boston Center
04:06PM 42.9167 -71.4333 316° Northwest  Level FlightAware Approximate
04:13PM 42.9328 -71.4358 316° Northwest  Level Estimated
04:14PM 42.9328 -71.4358 316° Northwest  Level Estimated